sensor_id;sensor_type;location;lat;lon;timestamp;P1;durP1;ratioP1;P2;durP2;ratioP2
16784;SDS011;8509;52.178;5.404;2023-10-08T00:01:36;5.00;;;1.83;;
16784;SDS011;8509;52.178;5.404;2023-10-08T00:04:07;1.98;;;1.65;;
16784;SDS011;8509;52.178;5.404;2023-10-08T00:06:36;3.40;;;1.63;;
16784;SDS011;8509;52.178;5.404;2023-10-08T00:09:03;3.05;;;2.05;;
16784;SDS011;8509;52.178;5.404;2023-10-08T00:11:33;2.65;;;1.50;;
16784;SDS011;8509;52.178;5.404;2023-10-08T00:14:01;8.73;;;2.42;;
16784;SDS011;8509;52.178;5.404;2023-10-08T00:16:27;6.20;;;2.67;;
16784;SDS011;8509;52.178;5.404;2023-10-08T00:18:53;5.47;;;2.00;;
16784;SDS011;8509;52.178;5.404;2023-10-08T00:21:23;5.55;;;1.50;;
16784;SDS011;8509;52.178;5.404;2023-10-08T00:23:52;3.00;;;1.10;;
16784;SDS011;8509;52.178;5.404;2023-10-08T00:26:23;5.75;;;2.53;;
16784;SDS011;8509;52.178;5.404;2023-10-08T00:28:59;4.63;;;1.85;;
16784;SDS011;8509;52.178;5.404;2023-10-08T00:31:26;2.47;;;1.65;;
16784;SDS011;8509;52.178;5.404;2023-10-08T00:33:57;7.00;;;2.13;;
16784;SDS011;8509;52.178;5.404;2023-10-08T00:36:23;5.10;;;2.38;;
16784;SDS011;8509;52.178;5.404;2023-10-08T00:38:51;3.72;;;1.58;;
16784;SDS011;8509;52.178;5.404;2023-10-08T00:41:23;6.68;;;1.80;;
16784;SDS011;8509;52.178;5.404;2023-10-08T00:43:53;5.35;;;2.10;;
16784;SDS011;8509;52.178;5.404;2023-10-08T00:46:21;2.40;;;1.05;;
16784;SDS011;8509;52.178;5.404;2023-10-08T00:48:52;7.90;;;1.83;;
16784;SDS011;8509;52.178;5.404;2023-10-08T00:51:25;2.58;;;2.33;;
16784;SDS011;8509;52.178;5.404;2023-10-08T00:53:58;3.03;;;1.98;;
16784;SDS011;8509;52.178;5.404;2023-10-08T00:56:34;3.17;;;2.03;;
16784;SDS011;8509;52.178;5.404;2023-10-08T00:59:33;4.85;;;1.90;;
16784;SDS011;8509;52.178;5.404;2023-10-08T01:02:15;2.83;;;1.42;;
16784;SDS011;8509;52.178;5.404;2023-10-08T01:04:45;3.75;;;1.52;;
16784;SDS011;8509;52.178;5.404;2023-10-08T01:07:11;3.47;;;1.70;;
16784;SDS011;8509;52.178;5.404;2023-10-08T01:09:43;2.70;;;1.15;;
16784;SDS011;8509;52.178;5.404;2023-10-08T01:14:49;2.63;;;1.67;;
16784;SDS011;8509;52.178;5.404;2023-10-08T01:17:18;4.28;;;1.95;;
16784;SDS011;8509;52.178;5.404;2023-10-08T01:19:52;2.95;;;1.60;;
16784;SDS011;8509;52.178;5.404;2023-10-08T01:22:41;6.85;;;1.67;;
16784;SDS011;8509;52.178;5.404;2023-10-08T01:25:06;2.47;;;1.45;;
16784;SDS011;8509;52.178;5.404;2023-10-08T01:27:35;2.05;;;1.50;;
16784;SDS011;8509;52.178;5.404;2023-10-08T01:30:02;3.63;;;1.90;;
16784;SDS011;8509;52.178;5.404;2023-10-08T01:32:42;4.05;;;1.60;;
16784;SDS011;8509;52.178;5.404;2023-10-08T01:35:09;9.93;;;2.85;;
16784;SDS011;8509;52.178;5.404;2023-10-08T01:37:51;7.38;;;1.95;;
16784;SDS011;8509;52.178;5.404;2023-10-08T01:40:21;3.53;;;1.90;;
16784;SDS011;8509;52.178;5.404;2023-10-08T01:42:50;4.75;;;1.38;;
16784;SDS011;8509;52.178;5.404;2023-10-08T01:45:16;5.43;;;1.40;;
16784;SDS011;8509;52.178;5.404;2023-10-08T01:47:43;3.60;;;1.70;;
16784;SDS011;8509;52.178;5.404;2023-10-08T01:50:09;3.78;;;1.48;;
16784;SDS011;8509;52.178;5.404;2023-10-08T01:52:46;3.97;;;1.67;;
16784;SDS011;8509;52.178;5.404;2023-10-08T01:55:13;6.07;;;1.90;;
16784;SDS011;8509;52.178;5.404;2023-10-08T01:57:48;4.25;;;1.27;;
16784;SDS011;8509;52.178;5.404;2023-10-08T02:00:19;5.50;;;2.55;;
16784;SDS011;8509;52.178;5.404;2023-10-08T02:02:51;3.38;;;2.10;;
16784;SDS011;8509;52.178;5.404;2023-10-08T02:05:19;11.65;;;1.90;;
16784;SDS011;8509;52.178;5.404;2023-10-08T02:07:46;4.68;;;2.05;;
16784;SDS011;8509;52.178;5.404;2023-10-08T02:10:12;2.20;;;1.65;;
16784;SDS011;8509;52.178;5.404;2023-10-08T02:12:39;2.80;;;1.50;;
16784;SDS011;8509;52.178;5.404;2023-10-08T02:15:06;2.03;;;1.38;;
16784;SDS011;8509;52.178;5.404;2023-10-08T02:17:33;1.10;;;1.00;;
16784;SDS011;8509;52.178;5.404;2023-10-08T02:19:58;4.38;;;1.52;;
16784;SDS011;8509;52.178;5.404;2023-10-08T02:22:24;2.25;;;1.58;;
16784;SDS011;8509;52.178;5.404;2023-10-08T02:24:50;5.97;;;1.90;;
16784;SDS011;8509;52.178;5.404;2023-10-08T02:27:16;4.15;;;1.85;;
16784;SDS011;8509;52.178;5.404;2023-10-08T02:29:42;3.95;;;1.98;;
16784;SDS011;8509;52.178;5.404;2023-10-08T02:32:07;7.93;;;1.92;;
16784;SDS011;8509;52.178;5.404;2023-10-08T02:34:34;2.95;;;2.13;;
16784;SDS011;8509;52.178;5.404;2023-10-08T02:37:00;11.85;;;2.53;;
16784;SDS011;8509;52.178;5.404;2023-10-08T02:39:28;4.18;;;1.83;;
16784;SDS011;8509;52.178;5.404;2023-10-08T02:41:56;5.18;;;1.73;;
16784;SDS011;8509;52.178;5.404;2023-10-08T02:44:24;8.77;;;2.72;;
16784;SDS011;8509;52.178;5.404;2023-10-08T02:46:51;5.25;;;1.80;;
16784;SDS011;8509;52.178;5.404;2023-10-08T02:49:20;3.75;;;1.80;;
16784;SDS011;8509;52.178;5.404;2023-10-08T02:51:48;4.53;;;1.85;;
16784;SDS011;8509;52.178;5.404;2023-10-08T02:54:15;9.65;;;2.95;;
16784;SDS011;8509;52.178;5.404;2023-10-08T02:57:05;7.30;;;1.95;;
16784;SDS011;8509;52.178;5.404;2023-10-08T02:59:41;5.45;;;1.98;;
16784;SDS011;8509;52.178;5.404;2023-10-08T03:02:11;2.65;;;2.10;;
16784;SDS011;8509;52.178;5.404;2023-10-08T03:04:47;3.25;;;2.20;;
16784;SDS011;8509;52.178;5.404;2023-10-08T03:07:16;5.47;;;2.45;;
16784;SDS011;8509;52.178;5.404;2023-10-08T03:09:57;4.63;;;2.30;;
16784;SDS011;8509;52.178;5.404;2023-10-08T03:12:30;4.93;;;2.10;;
16784;SDS011;8509;52.178;5.404;2023-10-08T03:14:57;6.90;;;2.78;;
16784;SDS011;8509;52.178;5.404;2023-10-08T03:17:37;6.10;;;2.80;;
16784;SDS011;8509;52.178;5.404;2023-10-08T03:20:04;6.22;;;1.95;;
16784;SDS011;8509;52.178;5.404;2023-10-08T03:22:50;6.40;;;2.58;;
16784;SDS011;8509;52.178;5.404;2023-10-08T03:25:16;5.45;;;2.15;;
16784;SDS011;8509;52.178;5.404;2023-10-08T03:27:42;3.05;;;2.00;;
16784;SDS011;8509;52.178;5.404;2023-10-08T03:30:08;2.20;;;1.90;;
16784;SDS011;8509;52.178;5.404;2023-10-08T03:32:42;5.75;;;2.47;;
16784;SDS011;8509;52.178;5.404;2023-10-08T03:35:15;3.95;;;2.50;;
16784;SDS011;8509;52.178;5.404;2023-10-08T03:37:48;4.18;;;1.98;;
16784;SDS011;8509;52.178;5.404;2023-10-08T03:40:15;7.60;;;2.90;;
16784;SDS011;8509;52.178;5.404;2023-10-08T03:42:50;3.50;;;2.15;;
16784;SDS011;8509;52.178;5.404;2023-10-08T03:45:16;6.97;;;2.50;;
16784;SDS011;8509;52.178;5.404;2023-10-08T03:48:02;9.05;;;2.08;;
16784;SDS011;8509;52.178;5.404;2023-10-08T03:50:35;3.22;;;1.90;;
16784;SDS011;8509;52.178;5.404;2023-10-08T03:53:08;3.15;;;1.73;;
16784;SDS011;8509;52.178;5.404;2023-10-08T03:55:38;19.25;;;2.13;;
16784;SDS011;8509;52.178;5.404;2023-10-08T03:58:08;5.55;;;1.70;;
16784;SDS011;8509;52.178;5.404;2023-10-08T04:00:39;8.33;;;2.00;;
16784;SDS011;8509;52.178;5.404;2023-10-08T04:03:08;9.27;;;2.13;;
16784;SDS011;8509;52.178;5.404;2023-10-08T04:05:36;4.10;;;1.70;;
16784;SDS011;8509;52.178;5.404;2023-10-08T04:08:20;7.03;;;2.08;;
16784;SDS011;8509;52.178;5.404;2023-10-08T04:11:06;6.82;;;1.45;;
16784;SDS011;8509;52.178;5.404;2023-10-08T04:13:50;5.03;;;1.67;;
16784;SDS011;8509;52.178;5.404;2023-10-08T04:16:17;5.95;;;1.20;;
16784;SDS011;8509;52.178;5.404;2023-10-08T04:18:45;6.00;;;1.83;;
16784;SDS011;8509;52.178;5.404;2023-10-08T04:21:16;5.38;;;1.60;;
16784;SDS011;8509;52.178;5.404;2023-10-08T04:23:45;5.60;;;1.45;;
16784;SDS011;8509;52.178;5.404;2023-10-08T04:26:16;3.42;;;1.38;;
16784;SDS011;8509;52.178;5.404;2023-10-08T04:28:43;1.98;;;1.23;;
16784;SDS011;8509;52.178;5.404;2023-10-08T04:31:08;3.72;;;1.52;;
16784;SDS011;8509;52.178;5.404;2023-10-08T04:33:43;4.57;;;1.52;;
16784;SDS011;8509;52.178;5.404;2023-10-08T04:36:12;4.10;;;1.40;;
16784;SDS011;8509;52.178;5.404;2023-10-08T04:38:44;3.65;;;1.10;;
16784;SDS011;8509;52.178;5.404;2023-10-08T04:41:13;4.22;;;2.45;;
16784;SDS011;8509;52.178;5.404;2023-10-08T04:43:42;10.82;;;2.25;;
16784;SDS011;8509;52.178;5.404;2023-10-08T04:46:08;4.07;;;2.50;;
16784;SDS011;8509;52.178;5.404;2023-10-08T04:48:48;1.55;;;1.30;;
16784;SDS011;8509;52.178;5.404;2023-10-08T04:51:17;5.70;;;1.42;;
16784;SDS011;8509;52.178;5.404;2023-10-08T04:53:46;5.93;;;1.58;;
16784;SDS011;8509;52.178;5.404;2023-10-08T04:56:12;6.43;;;1.83;;
16784;SDS011;8509;52.178;5.404;2023-10-08T04:58:42;7.97;;;1.80;;
16784;SDS011;8509;52.178;5.404;2023-10-08T05:01:14;19.10;;;2.75;;
16784;SDS011;8509;52.178;5.404;2023-10-08T05:04:03;5.70;;;2.10;;
16784;SDS011;8509;52.178;5.404;2023-10-08T05:06:29;8.25;;;2.33;;
16784;SDS011;8509;52.178;5.404;2023-10-08T05:09:02;9.60;;;1.60;;
16784;SDS011;8509;52.178;5.404;2023-10-08T05:11:48;3.60;;;1.30;;
16784;SDS011;8509;52.178;5.404;2023-10-08T05:14:18;2.10;;;1.85;;
16784;SDS011;8509;52.178;5.404;2023-10-08T05:17:00;8.48;;;1.77;;
16784;SDS011;8509;52.178;5.404;2023-10-08T05:19:36;3.83;;;2.03;;
16784;SDS011;8509;52.178;5.404;2023-10-08T05:22:13;5.68;;;1.88;;
16784;SDS011;8509;52.178;5.404;2023-10-08T05:24:47;6.07;;;2.10;;
16784;SDS011;8509;52.178;5.404;2023-10-08T05:27:32;3.50;;;1.33;;
16784;SDS011;8509;52.178;5.404;2023-10-08T05:30:17;2.15;;;1.30;;
16784;SDS011;8509;52.178;5.404;2023-10-08T05:32:54;11.48;;;1.88;;
16784;SDS011;8509;52.178;5.404;2023-10-08T05:35:39;6.68;;;2.42;;
16784;SDS011;8509;52.178;5.404;2023-10-08T05:38:09;8.15;;;1.40;;
16784;SDS011;8509;52.178;5.404;2023-10-08T05:40:55;3.10;;;1.50;;
16784;SDS011;8509;52.178;5.404;2023-10-08T05:43:21;6.72;;;1.27;;
16784;SDS011;8509;52.178;5.404;2023-10-08T05:46:06;3.17;;;1.58;;
16784;SDS011;8509;52.178;5.404;2023-10-08T05:48:51;2.43;;;1.63;;
16784;SDS011;8509;52.178;5.404;2023-10-08T05:51:27;1.92;;;0.70;;
16784;SDS011;8509;52.178;5.404;2023-10-08T05:54:11;3.10;;;1.25;;
16784;SDS011;8509;52.178;5.404;2023-10-08T05:56:57;1.92;;;1.10;;
16784;SDS011;8509;52.178;5.404;2023-10-08T05:59:37;2.03;;;0.80;;
16784;SDS011;8509;52.178;5.404;2023-10-08T06:04:59;3.65;;;0.80;;
16784;SDS011;8509;52.178;5.404;2023-10-08T06:07:45;9.05;;;1.95;;
16784;SDS011;8509;52.178;5.404;2023-10-08T06:10:27;5.35;;;0.93;;
16784;SDS011;8509;52.178;5.404;2023-10-08T06:13:21;2.25;;;0.85;;
16784;SDS011;8509;52.178;5.404;2023-10-08T06:16:06;2.28;;;0.95;;
16784;SDS011;8509;52.178;5.404;2023-10-08T06:18:33;0.65;;;0.65;;
16784;SDS011;8509;52.178;5.404;2023-10-08T06:21:03;1.08;;;0.57;;
16784;SDS011;8509;52.178;5.404;2023-10-08T06:23:34;1.70;;;0.70;;
16784;SDS011;8509;52.178;5.404;2023-10-08T06:26:01;0.65;;;0.65;;
16784;SDS011;8509;52.178;5.404;2023-10-08T06:28:43;4.45;;;1.13;;
16784;SDS011;8509;52.178;5.404;2023-10-08T06:31:10;0.85;;;0.50;;
16784;SDS011;8509;52.178;5.404;2023-10-08T06:33:40;3.67;;;1.27;;
16784;SDS011;8509;52.178;5.404;2023-10-08T06:36:06;4.45;;;0.98;;
16784;SDS011;8509;52.178;5.404;2023-10-08T06:38:38;2.05;;;0.68;;
16784;SDS011;8509;52.178;5.404;2023-10-08T06:41:11;0.73;;;0.73;;
16784;SDS011;8509;52.178;5.404;2023-10-08T06:43:40;3.05;;;1.08;;
16784;SDS011;8509;52.178;5.404;2023-10-08T06:46:15;1.58;;;0.50;;
16784;SDS011;8509;52.178;5.404;2023-10-08T06:48:44;0.68;;;0.68;;
16784;SDS011;8509;52.178;5.404;2023-10-08T06:51:11;0.60;;;0.60;;
16784;SDS011;8509;52.178;5.404;2023-10-08T06:53:47;0.43;;;0.43;;
16784;SDS011;8509;52.178;5.404;2023-10-08T06:56:14;2.38;;;0.98;;
16784;SDS011;8509;52.178;5.404;2023-10-08T06:58:40;0.95;;;0.60;;
16784;SDS011;8509;52.178;5.404;2023-10-08T07:01:18;1.25;;;0.77;;
16784;SDS011;8509;52.178;5.404;2023-10-08T07:03:50;0.73;;;0.50;;
16784;SDS011;8509;52.178;5.404;2023-10-08T07:06:31;1.92;;;0.93;;
16784;SDS011;8509;52.178;5.404;2023-10-08T07:08:59;2.75;;;0.77;;
16784;SDS011;8509;52.178;5.404;2023-10-08T07:11:30;0.93;;;0.73;;
16784;SDS011;8509;52.178;5.404;2023-10-08T07:14:00;2.35;;;0.70;;
16784;SDS011;8509;52.178;5.404;2023-10-08T07:16:26;0.95;;;0.93;;
16784;SDS011;8509;52.178;5.404;2023-10-08T07:18:53;0.98;;;0.80;;
16784;SDS011;8509;52.178;5.404;2023-10-08T07:21:26;0.88;;;0.75;;
16784;SDS011;8509;52.178;5.404;2023-10-08T07:24:04;0.63;;;0.60;;
16784;SDS011;8509;52.178;5.404;2023-10-08T07:26:35;0.55;;;0.55;;
16784;SDS011;8509;52.178;5.404;2023-10-08T07:29:12;0.95;;;0.73;;
16784;SDS011;8509;52.178;5.404;2023-10-08T07:31:47;1.02;;;0.70;;
16784;SDS011;8509;52.178;5.404;2023-10-08T07:34:14;1.55;;;0.98;;
16784;SDS011;8509;52.178;5.404;2023-10-08T07:36:41;0.75;;;0.57;;
16784;SDS011;8509;52.178;5.404;2023-10-08T07:39:08;1.02;;;0.70;;
16784;SDS011;8509;52.178;5.404;2023-10-08T07:41:45;1.48;;;0.95;;
16784;SDS011;8509;52.178;5.404;2023-10-08T07:44:13;1.35;;;1.05;;
16784;SDS011;8509;52.178;5.404;2023-10-08T07:46:38;0.90;;;0.75;;
16784;SDS011;8509;52.178;5.404;2023-10-08T07:49:04;1.30;;;0.95;;
16784;SDS011;8509;52.178;5.404;2023-10-08T07:51:30;1.20;;;0.80;;
16784;SDS011;8509;52.178;5.404;2023-10-08T07:53:56;2.42;;;1.13;;
16784;SDS011;8509;52.178;5.404;2023-10-08T07:56:22;1.25;;;0.88;;
16784;SDS011;8509;52.178;5.404;2023-10-08T07:58:51;0.82;;;0.70;;
16784;SDS011;8509;52.178;5.404;2023-10-08T08:01:20;0.80;;;0.70;;
16784;SDS011;8509;52.178;5.404;2023-10-08T08:03:46;0.65;;;0.60;;
16784;SDS011;8509;52.178;5.404;2023-10-08T08:06:14;0.95;;;0.63;;
16784;SDS011;8509;52.178;5.404;2023-10-08T08:08:40;3.20;;;0.90;;
16784;SDS011;8509;52.178;5.404;2023-10-08T08:11:07;1.13;;;0.77;;
16784;SDS011;8509;52.178;5.404;2023-10-08T08:13:42;0.73;;;0.55;;
16784;SDS011;8509;52.178;5.404;2023-10-08T08:16:10;1.70;;;1.00;;
16784;SDS011;8509;52.178;5.404;2023-10-08T08:18:43;0.85;;;0.70;;
16784;SDS011;8509;52.178;5.404;2023-10-08T08:21:10;1.25;;;0.68;;
16784;SDS011;8509;52.178;5.404;2023-10-08T08:23:41;0.50;;;0.50;;
16784;SDS011;8509;52.178;5.404;2023-10-08T08:26:12;0.70;;;0.70;;
16784;SDS011;8509;52.178;5.404;2023-10-08T08:28:51;0.80;;;0.80;;
16784;SDS011;8509;52.178;5.404;2023-10-08T08:31:22;0.70;;;0.60;;
16784;SDS011;8509;52.178;5.404;2023-10-08T08:33:49;2.75;;;0.90;;
16784;SDS011;8509;52.178;5.404;2023-10-08T08:36:21;2.00;;;0.98;;
16784;SDS011;8509;52.178;5.404;2023-10-08T08:38:47;0.77;;;0.70;;
16784;SDS011;8509;52.178;5.404;2023-10-08T08:41:14;0.50;;;0.50;;
16784;SDS011;8509;52.178;5.404;2023-10-08T08:43:43;0.40;;;0.40;;
16784;SDS011;8509;52.178;5.404;2023-10-08T08:46:13;0.55;;;0.55;;
16784;SDS011;8509;52.178;5.404;2023-10-08T08:48:40;2.08;;;1.02;;
16784;SDS011;8509;52.178;5.404;2023-10-08T08:51:07;0.82;;;0.65;;
16784;SDS011;8509;52.178;5.404;2023-10-08T08:53:34;0.95;;;0.50;;
16784;SDS011;8509;52.178;5.404;2023-10-08T08:56:04;0.47;;;0.47;;
16784;SDS011;8509;52.178;5.404;2023-10-08T08:58:34;0.68;;;0.50;;
16784;SDS011;8509;52.178;5.404;2023-10-08T09:01:02;0.43;;;0.40;;
16784;SDS011;8509;52.178;5.404;2023-10-08T09:03:31;1.35;;;0.80;;
16784;SDS011;8509;52.178;5.404;2023-10-08T09:05:57;1.05;;;0.70;;
16784;SDS011;8509;52.178;5.404;2023-10-08T09:08:27;0.65;;;0.50;;
16784;SDS011;8509;52.178;5.404;2023-10-08T09:10:56;0.90;;;0.70;;
16784;SDS011;8509;52.178;5.404;2023-10-08T09:13:26;0.80;;;0.60;;
16784;SDS011;8509;52.178;5.404;2023-10-08T09:15:52;0.43;;;0.43;;
16784;SDS011;8509;52.178;5.404;2023-10-08T09:18:22;0.52;;;0.52;;
16784;SDS011;8509;52.178;5.404;2023-10-08T09:20:49;0.60;;;0.60;;
16784;SDS011;8509;52.178;5.404;2023-10-08T09:23:15;0.50;;;0.50;;
16784;SDS011;8509;52.178;5.404;2023-10-08T09:25:47;0.57;;;0.52;;
16784;SDS011;8509;52.178;5.404;2023-10-08T09:28:18;1.08;;;1.00;;
16784;SDS011;8509;52.178;5.404;2023-10-08T09:30:44;0.82;;;0.82;;
16784;SDS011;8509;52.178;5.404;2023-10-08T09:33:11;0.75;;;0.75;;
16784;SDS011;8509;52.178;5.404;2023-10-08T09:35:37;1.20;;;1.00;;
16784;SDS011;8509;52.178;5.404;2023-10-08T09:38:04;2.33;;;0.70;;
16784;SDS011;8509;52.178;5.404;2023-10-08T09:40:38;0.47;;;0.43;;
16784;SDS011;8509;52.178;5.404;2023-10-08T09:43:11;0.75;;;0.50;;
16784;SDS011;8509;52.178;5.404;2023-10-08T09:45:47;0.63;;;0.63;;
16784;SDS011;8509;52.178;5.404;2023-10-08T09:48:17;0.50;;;0.50;;
16784;SDS011;8509;52.178;5.404;2023-10-08T09:50:45;0.75;;;0.52;;
16784;SDS011;8509;52.178;5.404;2023-10-08T09:53:13;0.65;;;0.57;;
16784;SDS011;8509;52.178;5.404;2023-10-08T09:55:46;1.35;;;0.50;;
16784;SDS011;8509;52.178;5.404;2023-10-08T09:58:19;2.03;;;0.80;;
16784;SDS011;8509;52.178;5.404;2023-10-08T10:00:48;0.57;;;0.57;;
16784;SDS011;8509;52.178;5.404;2023-10-08T10:03:15;0.77;;;0.60;;
16784;SDS011;8509;52.178;5.404;2023-10-08T10:05:43;1.88;;;0.90;;
16784;SDS011;8509;52.178;5.404;2023-10-08T10:08:10;3.50;;;0.45;;
16784;SDS011;8509;52.178;5.404;2023-10-08T10:10:36;0.80;;;0.80;;
16784;SDS011;8509;52.178;5.404;2023-10-08T10:13:06;0.80;;;0.55;;
16784;SDS011;8509;52.178;5.404;2023-10-08T10:20:44;1.15;;;0.77;;
16784;SDS011;8509;52.178;5.404;2023-10-08T10:31:39;0.80;;;0.80;;
16784;SDS011;8509;52.178;5.404;2023-10-08T10:34:10;0.70;;;0.70;;
16784;SDS011;8509;52.178;5.404;2023-10-08T10:36:40;0.55;;;0.55;;
16784;SDS011;8509;52.178;5.404;2023-10-08T10:39:06;0.70;;;0.70;;
16784;SDS011;8509;52.178;5.404;2023-10-08T10:41:44;0.90;;;0.85;;
16784;SDS011;8509;52.178;5.404;2023-10-08T10:44:14;1.85;;;0.45;;
16784;SDS011;8509;52.178;5.404;2023-10-08T10:46:44;0.98;;;0.70;;
16784;SDS011;8509;52.178;5.404;2023-10-08T10:49:19;2.00;;;1.25;;
16784;SDS011;8509;52.178;5.404;2023-10-08T10:52:01;0.82;;;0.82;;
16784;SDS011;8509;52.178;5.404;2023-10-08T10:54:30;1.27;;;1.02;;
16784;SDS011;8509;52.178;5.404;2023-10-08T10:57:01;1.40;;;0.60;;
16784;SDS011;8509;52.178;5.404;2023-10-08T10:59:31;0.80;;;0.80;;
16784;SDS011;8509;52.178;5.404;2023-10-08T11:02:17;1.02;;;0.93;;
16784;SDS011;8509;52.178;5.404;2023-10-08T11:04:46;0.50;;;0.50;;
16784;SDS011;8509;52.178;5.404;2023-10-08T11:07:18;0.60;;;0.60;;
16784;SDS011;8509;52.178;5.404;2023-10-08T11:09:48;0.55;;;0.55;;
16784;SDS011;8509;52.178;5.404;2023-10-08T11:12:16;0.50;;;0.50;;
16784;SDS011;8509;52.178;5.404;2023-10-08T11:14:57;1.67;;;0.60;;
16784;SDS011;8509;52.178;5.404;2023-10-08T11:17:24;0.50;;;0.50;;
16784;SDS011;8509;52.178;5.404;2023-10-08T11:19:51;2.58;;;0.70;;
16784;SDS011;8509;52.178;5.404;2023-10-08T11:22:17;0.70;;;0.70;;
16784;SDS011;8509;52.178;5.404;2023-10-08T11:24:44;1.35;;;0.60;;
16784;SDS011;8509;52.178;5.404;2023-10-08T11:27:17;0.65;;;0.65;;
16784;SDS011;8509;52.178;5.404;2023-10-08T11:29:53;1.27;;;0.77;;
16784;SDS011;8509;52.178;5.404;2023-10-08T11:32:23;12.65;;;2.40;;
16784;SDS011;8509;52.178;5.404;2023-10-08T11:34:58;1.65;;;0.60;;
16784;SDS011;8509;52.178;5.404;2023-10-08T11:37:28;1.00;;;0.70;;
16784;SDS011;8509;52.178;5.404;2023-10-08T11:39:58;0.85;;;0.82;;
16784;SDS011;8509;52.178;5.404;2023-10-08T11:42:25;0.68;;;0.63;;
16784;SDS011;8509;52.178;5.404;2023-10-08T11:45:11;0.88;;;0.88;;
16784;SDS011;8509;52.178;5.404;2023-10-08T11:47:46;0.63;;;0.60;;
16784;SDS011;8509;52.178;5.404;2023-10-08T11:50:14;0.70;;;0.68;;
16784;SDS011;8509;52.178;5.404;2023-10-08T11:52:45;1.40;;;1.10;;
16784;SDS011;8509;52.178;5.404;2023-10-08T11:55:11;0.77;;;0.77;;
16784;SDS011;8509;52.178;5.404;2023-10-08T11:57:44;0.60;;;0.60;;
16784;SDS011;8509;52.178;5.404;2023-10-08T12:00:14;2.25;;;0.60;;
16784;SDS011;8509;52.178;5.404;2023-10-08T12:02:50;0.90;;;0.63;;
16784;SDS011;8509;52.178;5.404;2023-10-08T12:05:19;0.82;;;0.82;;
16784;SDS011;8509;52.178;5.404;2023-10-08T12:07:48;1.15;;;0.80;;
16784;SDS011;8509;52.178;5.404;2023-10-08T12:10:16;0.52;;;0.52;;
16784;SDS011;8509;52.178;5.404;2023-10-08T12:12:50;1.35;;;0.73;;
16784;SDS011;8509;52.178;5.404;2023-10-08T12:15:22;1.25;;;1.15;;
16784;SDS011;8509;52.178;5.404;2023-10-08T12:20:36;0.82;;;0.63;;
16784;SDS011;8509;52.178;5.404;2023-10-08T12:23:06;0.88;;;0.85;;
16784;SDS011;8509;52.178;5.404;2023-10-08T12:25:35;0.55;;;0.55;;
16784;SDS011;8509;52.178;5.404;2023-10-08T12:28:02;1.23;;;0.90;;
16784;SDS011;8509;52.178;5.404;2023-10-08T12:30:31;1.20;;;0.73;;
16784;SDS011;8509;52.178;5.404;2023-10-08T12:33:05;1.27;;;0.93;;
16784;SDS011;8509;52.178;5.404;2023-10-08T12:35:31;1.00;;;0.80;;
16784;SDS011;8509;52.178;5.404;2023-10-08T12:37:57;0.80;;;0.80;;
16784;SDS011;8509;52.178;5.404;2023-10-08T12:40:22;1.00;;;0.73;;
16784;SDS011;8509;52.178;5.404;2023-10-08T12:42:51;0.90;;;0.82;;
16784;SDS011;8509;52.178;5.404;2023-10-08T12:45:17;0.93;;;0.60;;
16784;SDS011;8509;52.178;5.404;2023-10-08T12:47:50;1.75;;;1.13;;
16784;SDS011;8509;52.178;5.404;2023-10-08T12:50:17;0.70;;;0.60;;
16784;SDS011;8509;52.178;5.404;2023-10-08T12:52:48;1.67;;;0.70;;
16784;SDS011;8509;52.178;5.404;2023-10-08T12:55:20;0.50;;;0.50;;
16784;SDS011;8509;52.178;5.404;2023-10-08T12:57:50;1.05;;;0.88;;
16784;SDS011;8509;52.178;5.404;2023-10-08T13:00:20;1.85;;;1.00;;
16784;SDS011;8509;52.178;5.404;2023-10-08T13:02:51;1.05;;;0.75;;
16784;SDS011;8509;52.178;5.404;2023-10-08T13:05:19;2.35;;;1.27;;
16784;SDS011;8509;52.178;5.404;2023-10-08T13:07:54;0.95;;;0.80;;
16784;SDS011;8509;52.178;5.404;2023-10-08T13:10:21;4.88;;;0.68;;
16784;SDS011;8509;52.178;5.404;2023-10-08T13:12:48;0.70;;;0.60;;
16784;SDS011;8509;52.178;5.404;2023-10-08T13:15:14;1.10;;;0.50;;
16784;SDS011;8509;52.178;5.404;2023-10-08T13:17:40;1.27;;;0.85;;
16784;SDS011;8509;52.178;5.404;2023-10-08T13:20:10;0.60;;;0.38;;
16784;SDS011;8509;52.178;5.404;2023-10-08T13:22:38;0.77;;;0.50;;
16784;SDS011;8509;52.178;5.404;2023-10-08T13:25:05;0.60;;;0.60;;
16784;SDS011;8509;52.178;5.404;2023-10-08T13:27:31;0.50;;;0.50;;
16784;SDS011;8509;52.178;5.404;2023-10-08T13:29:57;0.75;;;0.65;;
16784;SDS011;8509;52.178;5.404;2023-10-08T13:32:23;1.02;;;0.57;;
16784;SDS011;8509;52.178;5.404;2023-10-08T13:34:49;0.47;;;0.43;;
16784;SDS011;8509;52.178;5.404;2023-10-08T13:37:15;0.30;;;0.30;;
16784;SDS011;8509;52.178;5.404;2023-10-08T13:39:42;0.40;;;0.40;;
16784;SDS011;8509;52.178;5.404;2023-10-08T13:42:07;0.32;;;0.32;;
16784;SDS011;8509;52.178;5.404;2023-10-08T13:44:33;0.30;;;0.30;;
16784;SDS011;8509;52.178;5.404;2023-10-08T13:47:00;0.30;;;0.30;;
16784;SDS011;8509;52.178;5.404;2023-10-08T13:49:30;0.40;;;0.40;;
16784;SDS011;8509;52.178;5.404;2023-10-08T13:51:57;0.52;;;0.50;;
16784;SDS011;8509;52.178;5.404;2023-10-08T13:54:23;0.40;;;0.40;;
16784;SDS011;8509;52.178;5.404;2023-10-08T13:56:54;0.57;;;0.50;;
16784;SDS011;8509;52.178;5.404;2023-10-08T13:59:20;1.60;;;0.50;;
16784;SDS011;8509;52.178;5.404;2023-10-08T14:01:49;2.15;;;0.60;;
16784;SDS011;8509;52.178;5.404;2023-10-08T14:04:20;0.80;;;0.57;;
16784;SDS011;8509;52.178;5.404;2023-10-08T14:06:51;2.10;;;0.47;;
16784;SDS011;8509;52.178;5.404;2023-10-08T14:09:18;0.70;;;0.63;;
16784;SDS011;8509;52.178;5.404;2023-10-08T14:11:56;1.27;;;0.85;;
16784;SDS011;8509;52.178;5.404;2023-10-08T14:14:22;0.68;;;0.40;;
16784;SDS011;8509;52.178;5.404;2023-10-08T14:16:54;0.52;;;0.50;;
16784;SDS011;8509;52.178;5.404;2023-10-08T14:19:25;1.48;;;0.50;;
16784;SDS011;8509;52.178;5.404;2023-10-08T14:22:01;0.57;;;0.40;;
16784;SDS011;8509;52.178;5.404;2023-10-08T14:24:33;0.73;;;0.47;;
16784;SDS011;8509;52.178;5.404;2023-10-08T14:27:03;1.50;;;0.65;;
16784;SDS011;8509;52.178;5.404;2023-10-08T14:29:35;0.43;;;0.40;;
16784;SDS011;8509;52.178;5.404;2023-10-08T14:32:03;1.27;;;0.60;;
16784;SDS011;8509;52.178;5.404;2023-10-08T14:34:33;0.52;;;0.52;;
16784;SDS011;8509;52.178;5.404;2023-10-08T14:37:12;1.75;;;0.98;;
16784;SDS011;8509;52.178;5.404;2023-10-08T14:39:56;0.88;;;0.60;;
16784;SDS011;8509;52.178;5.404;2023-10-08T14:42:40;2.05;;;1.15;;
16784;SDS011;8509;52.178;5.404;2023-10-08T14:45:24;1.73;;;1.40;;
16784;SDS011;8509;52.178;5.404;2023-10-08T14:47:54;1.20;;;0.40;;
16784;SDS011;8509;52.178;5.404;2023-10-08T14:50:21;0.65;;;0.55;;
16784;SDS011;8509;52.178;5.404;2023-10-08T14:52:47;1.65;;;0.70;;
16784;SDS011;8509;52.178;5.404;2023-10-08T14:55:13;1.15;;;0.88;;
16784;SDS011;8509;52.178;5.404;2023-10-08T14:57:40;0.75;;;0.57;;
16784;SDS011;8509;52.178;5.404;2023-10-08T15:00:07;0.85;;;0.52;;
16784;SDS011;8509;52.178;5.404;2023-10-08T15:02:34;0.57;;;0.57;;
16784;SDS011;8509;52.178;5.404;2023-10-08T15:05:00;0.90;;;0.90;;
16784;SDS011;8509;52.178;5.404;2023-10-08T15:07:28;1.30;;;0.90;;
16784;SDS011;8509;52.178;5.404;2023-10-08T15:09:54;2.15;;;0.93;;
16784;SDS011;8509;52.178;5.404;2023-10-08T15:12:23;1.02;;;0.88;;
16784;SDS011;8509;52.178;5.404;2023-10-08T15:14:50;1.45;;;0.90;;
16784;SDS011;8509;52.178;5.404;2023-10-08T15:17:16;1.00;;;0.77;;
16784;SDS011;8509;52.178;5.404;2023-10-08T15:19:42;0.70;;;0.70;;
16784;SDS011;8509;52.178;5.404;2023-10-08T15:22:08;0.50;;;0.50;;
16784;SDS011;8509;52.178;5.404;2023-10-08T15:24:34;0.85;;;0.82;;
16784;SDS011;8509;52.178;5.404;2023-10-08T15:27:01;0.75;;;0.70;;
16784;SDS011;8509;52.178;5.404;2023-10-08T15:29:29;0.70;;;0.70;;
16784;SDS011;8509;52.178;5.404;2023-10-08T15:31:56;1.65;;;0.80;;
16784;SDS011;8509;52.178;5.404;2023-10-08T15:34:22;0.80;;;0.80;;
16784;SDS011;8509;52.178;5.404;2023-10-08T15:36:50;1.65;;;0.95;;
16784;SDS011;8509;52.178;5.404;2023-10-08T15:39:17;0.93;;;0.93;;
16784;SDS011;8509;52.178;5.404;2023-10-08T15:41:47;0.52;;;0.40;;
16784;SDS011;8509;52.178;5.404;2023-10-08T15:44:14;0.82;;;0.82;;